Time;durP1;ratioP1;P1;durP2;ratioP2;P2;SDS_P1;SDS_P2;PMS_P1;PMS_P2;Temp;Humidity;BMP_temperature;BMP_pressure;BME280_temperature;BME280_humidity;BME280_pressure;Samples;Min_cycle;Max_cycle;Signal;HPM_P1;HPM_P2
2022/11/06 00:02:25;;;;;;;4.23;3.07;;;8.50;1.00;;;;;;5090542;28;20230;-82
2022/11/06 00:04:52;;;;;;;5.57;3.53;;;8.50;1.00;;;;;;5091178;28;20233;-81
2022/11/06 00:07:19;;;;;;;4.10;3.10;;;8.50;1.00;;;;;;5087590;28;20206;-81
2022/11/06 00:09:45;;;;;;;4.87;3.17;;;8.50;1.00;;;;;;5076818;28;20230;-82
2022/11/06 00:12:12;;;;;;;8.33;3.50;;;8.50;1.00;;;;;;5085692;28;20300;-81
2022/11/06 00:14:39;;;;;;;6.20;2.93;;;8.50;1.00;;;;;;5085758;28;20214;-83
2022/11/06 00:17:07;;;;;;;5.47;3.43;;;8.60;1.00;;;;;;5073301;28;20207;-82
2022/11/06 00:19:34;;;;;;;10.10;3.70;;;8.60;1.00;;;;;;5075843;28;20230;-81
2022/11/06 00:22:01;;;;;;;9.20;4.43;;;8.80;1.00;;;;;;5068318;28;20199;-82
2022/11/06 00:24:29;;;;;;;6.67;3.60;;;8.70;1.00;;;;;;5072405;28;20206;-82
2022/11/06 00:26:56;;;;;;;7.70;4.03;;;8.70;1.00;;;;;;5076902;28;20202;-82
2022/11/06 00:29:23;;;;;;;5.03;2.93;;;8.80;1.00;;;;;;5086658;28;20266;-82
2022/11/06 00:31:50;;;;;;;5.13;3.40;;;8.80;1.00;;;;;;5088168;28;20202;-82
2022/11/06 00:34:17;;;;;;;4.53;2.83;;;8.90;1.00;;;;;;5087219;28;20208;-82
2022/11/06 00:36:43;;;;;;;5.20;3.30;;;8.80;1.00;;;;;;5087661;28;20314;-83
2022/11/06 00:39:11;;;;;;;6.27;3.10;;;8.90;1.00;;;;;;5090352;28;20208;-83
2022/11/06 00:41:39;;;;;;;4.17;3.20;;;8.80;1.00;;;;;;5088000;28;20201;-82
2022/11/06 00:44:06;;;;;;;7.90;2.93;;;9.00;1.00;;;;;;5089140;28;20262;-82
2022/11/06 00:46:33;;;;;;;6.60;3.17;;;8.90;1.00;;;;;;5088932;28;20214;-82
2022/11/06 00:49:00;;;;;;;5.07;3.30;;;8.80;1.00;;;;;;5087150;28;20225;-82
2022/11/06 00:51:29;;;;;;;6.43;3.30;;;8.80;1.00;;;;;;5089557;28;20308;-82
2022/11/06 00:53:58;;;;;;;6.43;3.17;;;8.80;1.00;;;;;;5090802;28;20731;-82
2022/11/06 00:56:25;;;;;;;7.13;3.07;;;8.90;1.00;;;;;;5088787;28;20456;-82
2022/11/06 00:58:54;;;;;;;7.13;4.03;;;8.80;1.00;;;;;;5089086;28;20578;-82
2022/11/06 01:01:22;;;;;;;7.63;3.50;;;8.80;1.00;;;;;;5089168;28;20214;-82
2022/11/06 01:03:53;;;;;;;7.03;2.80;;;8.90;1.00;;;;;;5087831;28;20198;-82
2022/11/06 01:06:22;;;;;;;3.83;2.63;;;8.90;1.00;;;;;;5088924;28;20201;-83
2022/11/06 01:08:49;;;;;;;6.33;4.50;;;8.90;1.00;;;;;;5089910;28;20281;-82
2022/11/06 01:11:26;;;;;;;6.73;3.60;;;9.00;1.00;;;;;;5089882;28;20592;-82
2022/11/06 01:13:56;;;;;;;7.17;3.30;;;8.90;1.00;;;;;;5076714;28;20217;-83
2022/11/06 01:16:25;;;;;;;6.43;3.47;;;9.00;99.90;;;;;;5069802;28;20210;-82
2022/11/06 01:18:53;;;;;;;4.27;3.13;;;9.10;99.90;;;;;;5071494;28;20268;-82
2022/11/06 01:21:22;;;;;;;4.47;3.20;;;9.00;99.90;;;;;;5080452;28;20569;-82
2022/11/06 01:23:53;;;;;;;4.10;3.03;;;9.10;1.00;;;;;;5070781;28;20254;-83
2022/11/06 01:26:20;;;;;;;3.57;2.80;;;9.00;48.80;;;;;;5071689;28;20199;-82
2022/11/06 01:28:47;;;;;;;8.60;3.20;;;9.00;95.60;;;;;;5083632;28;20206;-82
2022/11/06 01:31:17;;;;;;;5.17;2.67;;;9.00;99.90;;;;;;5087400;28;20293;-82
2022/11/06 01:33:44;;;;;;;7.73;3.40;;;8.90;99.90;;;;;;5088162;28;20289;-82
2022/11/06 01:36:12;;;;;;;4.23;3.13;;;8.90;1.00;;;;;;5089709;28;20233;-82
2022/11/06 01:38:40;;;;;;;5.90;3.20;;;8.80;1.00;;;;;;5088465;28;20265;-82
2022/11/06 01:41:07;;;;;;;4.77;3.27;;;8.90;1.00;;;;;;5087888;28;20301;-82
2022/11/06 01:43:47;;;;;;;6.40;2.87;;;8.80;1.00;;;;;;5080922;28;20243;-82
2022/11/06 01:46:15;;;;;;;4.80;3.20;;;8.90;1.00;;;;;;5067150;28;20203;-82
2022/11/06 01:48:45;;;;;;;5.67;3.37;;;8.90;1.00;;;;;;5083931;28;20202;-82
2022/11/06 01:51:13;;;;;;;8.97;3.53;;;8.90;1.00;;;;;;5086143;28;20313;-82
2022/11/06 01:53:41;;;;;;;6.83;3.40;;;8.80;1.00;;;;;;5088481;28;20690;-82
2022/11/06 01:56:11;;;;;;;5.97;3.80;;;8.80;1.00;;;;;;5087986;28;20210;-82
2022/11/06 01:58:41;;;;;;;4.70;3.50;;;8.80;1.00;;;;;;5071346;28;20262;-82
2022/11/06 02:01:08;;;;;;;7.73;3.90;;;8.80;1.00;;;;;;5067939;28;20287;-82
2022/11/06 02:03:38;;;;;;;5.67;3.47;;;8.80;1.00;;;;;;5067715;28;20271;-82
2022/11/06 02:06:07;;;;;;;7.57;3.70;;;8.80;1.00;;;;;;5065777;28;20234;-83
2022/11/06 02:08:34;;;;;;;6.57;3.70;;;8.80;1.00;;;;;;5067337;28;20685;-83
2022/11/06 02:11:02;;;;;;;6.23;3.87;;;8.70;1.00;;;;;;5067440;28;20314;-82
2022/11/06 02:13:37;;;;;;;8.77;4.43;;;8.70;1.00;;;;;;5066766;28;20207;-83
2022/11/06 02:16:09;;;;;;;6.93;3.80;;;8.70;1.00;;;;;;5067406;28;20214;-82
2022/11/06 02:18:53;;;;;;;5.70;4.00;;;8.70;1.00;;;;;;5067992;28;20313;-82
2022/11/06 02:21:35;;;;;;;12.37;4.47;;;8.60;1.00;;;;;;5067181;28;20309;-82
2022/11/06 02:24:18;;;;;;;6.13;3.90;;;8.70;1.00;;;;;;5066096;28;20202;-82
2022/11/06 02:26:59;;;;;;;7.80;4.00;;;8.70;1.00;;;;;;5066260;28;20213;-82
2022/11/06 02:29:32;;;;;;;7.93;4.30;;;8.70;1.00;;;;;;5066776;28;20234;-82
2022/11/06 02:32:04;;;;;;;4.93;3.70;;;8.60;1.00;;;;;;5066703;28;20677;-82
2022/11/06 02:34:31;;;;;;;8.47;4.30;;;8.60;1.00;;;;;;5076545;28;20202;-82
2022/11/06 02:37:02;;;;;;;8.17;4.33;;;8.70;1.00;;;;;;5086930;28;20206;-82
2022/11/06 02:39:33;;;;;;;8.33;4.50;;;8.60;1.00;;;;;;5085771;28;20313;-82
2022/11/06 02:42:04;;;;;;;7.83;4.40;;;8.80;1.00;;;;;;5065534;28;20217;-82
2022/11/06 02:44:36;;;;;;;5.63;4.03;;;8.70;1.00;;;;;;5065797;28;20191;-82
2022/11/06 02:47:06;;;;;;;6.60;4.00;;;8.60;1.00;;;;;;5067503;28;20742;-82
2022/11/06 02:49:38;;;;;;;7.80;4.03;;;8.60;1.00;;;;;;5066919;28;20290;-82
2022/11/06 02:52:08;;;;;;;7.93;4.57;;;8.60;1.00;;;;;;5067549;28;20214;-82
2022/11/06 02:54:40;;;;;;;8.30;4.80;;;8.70;1.00;;;;;;5063855;28;20209;-83
2022/11/06 02:57:13;;;;;;;8.90;4.97;;;8.70;1.00;;;;;;5066506;28;20274;-82
2022/11/06 02:59:45;;;;;;;9.57;4.50;;;8.60;1.00;;;;;;5066569;28;20679;-82
2022/11/06 03:02:18;;;;;;;9.30;5.30;;;8.60;1.00;;;;;;5065890;28;20262;-82
2022/11/06 03:04:48;;;;;;;7.17;4.30;;;8.60;1.00;;;;;;5066319;28;20264;-82
2022/11/06 03:07:20;;;;;;;8.13;4.37;;;8.80;1.00;;;;;;5070839;28;20195;-82
2022/11/06 03:09:48;;;;;;;10.80;4.70;;;8.70;1.00;;;;;;5070298;28;20230;-82
2022/11/06 03:12:22;;;;;;;8.47;4.90;;;8.70;1.00;;;;;;5071142;28;20309;-83
2022/11/06 03:14:56;;;;;;;5.77;4.30;;;8.60;1.00;;;;;;5071798;28;20226;-82
2022/11/06 03:17:29;;;;;;;8.13;4.37;;;8.60;1.00;;;;;;5075661;28;20215;-82
2022/11/06 03:20:01;;;;;;;7.70;4.70;;;8.60;1.00;;;;;;5067047;28;20222;-82
2022/11/06 03:22:32;;;;;;;9.67;5.00;;;8.60;1.00;;;;;;5069249;28;20214;-82
2022/11/06 03:25:08;;;;;;;9.30;4.67;;;8.50;1.00;;;;;;5070607;28;20263;-82
2022/11/06 03:27:40;;;;;;;11.57;5.33;;;8.40;1.00;;;;;;5074201;28;20190;-83
2022/11/06 03:30:09;;;;;;;7.43;4.90;;;8.30;1.00;;;;;;5079451;28;20223;-82
2022/11/06 03:32:38;;;;;;;9.93;4.50;;;8.30;1.00;;;;;;5075535;28;20224;-82
2022/11/06 03:35:10;;;;;;;8.13;4.80;;;8.30;1.00;;;;;;5089279;28;20273;-82
2022/11/06 03:37:42;;;;;;;9.13;4.70;;;8.20;1.00;;;;;;5089346;28;20250;-82
2022/11/06 03:40:15;;;;;;;5.57;4.27;;;8.20;1.00;;;;;;5084868;28;20232;-82
2022/11/06 03:42:46;;;;;;;7.77;5.00;;;8.10;1.00;;;;;;5071370;28;20205;-83
2022/11/06 03:45:18;;;;;;;7.80;4.97;;;8.20;1.00;;;;;;5067693;28;20230;-82
2022/11/06 03:47:48;;;;;;;11.63;4.70;;;8.10;16.40;;;;;;5070061;28;20202;-82
2022/11/06 03:50:19;;;;;;;6.33;4.50;;;7.90;52.50;;;;;;5068253;28;20294;-82
2022/11/06 03:52:52;;;;;;;7.03;4.57;;;7.90;99.90;;;;;;5068778;28;20233;-82
2022/11/06 03:55:24;;;;;;;7.30;4.57;;;7.90;99.90;;;;;;5079063;28;20263;-82
2022/11/06 03:57:56;;;;;;;9.80;5.23;;;7.90;99.90;;;;;;5090179;28;20193;-82
2022/11/06 04:00:23;;;;;;;6.93;4.93;;;7.80;99.90;;;;;;5087873;28;20312;-82
2022/11/06 04:03:03;;;;;;;8.43;4.33;;;7.90;99.90;;;;;;5089238;28;20204;-83
2022/11/06 04:05:34;;;;;;;6.60;4.03;;;7.80;99.90;;;;;;5088859;28;20186;-83
2022/11/06 04:16:23;;;;;;;9.00;4.50;;;7.40;99.90;;;;;;5089173;28;20212;-82
2022/11/06 04:18:50;;;;;;;10.27;5.10;;;7.50;99.90;;;;;;5088774;28;20255;-82
2022/11/06 04:21:26;;;;;;;8.67;4.77;;;7.60;99.90;;;;;;5087569;28;20285;-82
2022/11/06 04:27:02;;;;;;;9.37;4.60;;;7.50;99.90;;;;;;5088770;28;20182;-83
2022/11/06 04:29:43;;;;;;;10.13;4.83;;;7.50;99.90;;;;;;5089320;28;20265;-82
2022/11/06 04:32:16;;;;;;;9.87;4.80;;;7.50;99.90;;;;;;5087810;28;20273;-83
2022/11/06 04:34:47;;;;;;;7.20;4.60;;;7.50;99.90;;;;;;5089041;28;20184;-83
2022/11/06 04:37:22;;;;;;;10.63;4.97;;;7.60;99.90;;;;;;5088240;28;20285;-83
2022/11/06 04:39:56;;;;;;;8.67;4.73;;;7.50;99.90;;;;;;5089618;28;20286;-83
2022/11/06 04:42:29;;;;;;;8.13;4.27;;;7.50;99.90;;;;;;5090646;28;20683;-82
2022/11/06 04:45:01;;;;;;;7.37;4.50;;;7.60;99.90;;;;;;5088573;28;20205;-82
2022/11/06 04:47:29;;;;;;;6.07;4.13;;;7.60;99.90;;;;;;5087626;28;20194;-83
2022/11/06 04:49:59;;;;;;;8.57;4.77;;;7.70;99.90;;;;;;5090089;28;20317;-82
2022/11/06 04:52:28;;;;;;;7.87;4.20;;;7.60;99.90;;;;;;5088135;28;20218;-82
2022/11/06 04:54:57;;;;;;;9.17;5.03;;;7.50;99.90;;;;;;5089939;28;20292;-82
2022/11/06 04:57:24;;;;;;;9.90;4.70;;;7.50;99.90;;;;;;5089883;28;20301;-82
2022/11/06 04:59:51;;;;;;;7.97;4.53;;;7.70;99.90;;;;;;5089539;28;20217;-82
2022/11/06 05:02:19;;;;;;;11.83;4.77;;;7.70;99.90;;;;;;5089998;28;20266;-82
2022/11/06 05:04:46;;;;;;;8.20;4.60;;;7.90;99.90;;;;;;5088544;28;20212;-82
2022/11/06 05:07:14;;;;;;;8.70;4.07;;;8.00;99.90;;;;;;5086936;28;20289;-81
2022/11/06 05:09:41;;;;;;;9.30;4.63;;;8.00;99.90;;;;;;5077245;28;20294;-82
2022/11/06 05:12:08;;;;;;;10.77;4.80;;;8.20;99.90;;;;;;5087841;28;20221;-82
2022/11/06 05:14:35;;;;;;;10.13;4.60;;;8.20;99.90;;;;;;5087485;28;20269;-82
2022/11/06 05:17:02;;;;;;;11.00;4.40;;;8.30;99.90;;;;;;5089878;28;20274;-82
2022/11/06 05:19:30;;;;;;;8.43;4.47;;;8.40;81.00;;;;;;5088217;28;20241;-82
2022/11/06 05:24:41;;;;;;;8.20;4.83;;;8.30;99.90;;;;;;5087622;28;20228;-82
2022/11/06 05:27:08;;;;;;;7.03;4.53;;;8.50;99.90;;;;;;5088986;28;20269;-83
2022/11/06 05:29:35;;;;;;;8.73;4.97;;;8.50;44.70;;;;;;5087028;28;20249;-82
2022/11/06 05:32:02;;;;;;;11.20;5.57;;;8.50;1.00;;;;;;5089029;28;20222;-82
2022/11/06 05:34:31;;;;;;;9.43;4.60;;;8.50;27.40;;;;;;5073820;28;20210;-82
2022/11/06 05:36:58;;;;;;;14.00;5.03;;;8.50;1.00;;;;;;5068707;28;20266;-83
2022/11/06 05:39:25;;;;;;;10.83;5.03;;;8.50;1.00;;;;;;5069462;28;20304;-82
2022/11/06 05:41:52;;;;;;;12.50;5.00;;;8.50;1.00;;;;;;5075258;28;20262;-82
2022/11/06 05:44:19;;;;;;;7.47;4.60;;;8.50;1.00;;;;;;5069068;28;20199;-82
2022/11/06 05:46:45;;;;;;;7.20;4.50;;;8.60;1.00;;;;;;5068441;28;20234;-82
2022/11/06 05:49:12;;;;;;;8.53;4.80;;;8.50;1.00;;;;;;5068263;28;20274;-83
2022/11/06 05:51:41;;;;;;;9.17;4.60;;;8.50;1.00;;;;;;5067952;28;20662;-82
2022/11/06 05:54:07;;;;;;;8.03;4.70;;;8.50;1.00;;;;;;5067509;28;20222;-82
2022/11/06 05:56:34;;;;;;;9.30;4.87;;;8.50;1.00;;;;;;5080985;28;20289;-82
2022/11/06 05:59:01;;;;;;;7.60;4.80;;;8.60;1.00;;;;;;5087481;28;20218;-82
2022/11/06 06:01:28;;;;;;;10.27;5.40;;;8.60;1.00;;;;;;5088589;28;20301;-82
2022/11/06 06:03:55;;;;;;;8.17;4.70;;;8.40;1.00;;;;;;5086273;28;20214;-83
2022/11/06 06:06:21;;;;;;;9.13;5.33;;;8.50;1.00;;;;;;5086988;28;20226;-82
2022/11/06 06:08:50;;;;;;;10.00;5.90;;;8.50;1.00;;;;;;5087195;28;20273;-83
2022/11/06 06:11:16;;;;;;;13.43;5.70;;;8.50;1.00;;;;;;5089159;28;20277;-82
2022/11/06 06:13:43;;;;;;;9.50;5.37;;;8.50;1.00;;;;;;5087509;28;20274;-82
2022/11/06 06:16:10;;;;;;;9.80;5.33;;;8.50;5.00;;;;;;5089253;28;20183;-83
2022/11/06 06:18:37;;;;;;;8.30;5.10;;;8.40;67.30;;;;;;5088849;28;20277;-83
2022/11/06 06:21:04;;;;;;;7.87;4.97;;;8.40;99.90;;;;;;5063637;28;20229;-82
2022/11/06 06:23:31;;;;;;;11.47;5.50;;;8.40;99.90;;;;;;5061556;28;20199;-82
2022/11/06 06:25:59;;;;;;;12.47;5.30;;;8.50;98.90;;;;;;5062508;28;20202;-82
2022/11/06 06:28:26;;;;;;;9.53;5.07;;;8.50;99.90;;;;;;5075521;28;20210;-82
2022/11/06 06:30:52;;;;;;;8.60;5.37;;;8.50;99.90;;;;;;5070872;28;20309;-82
2022/11/06 06:33:19;;;;;;;11.43;5.10;;;8.40;99.90;;;;;;5072996;28;20606;-81
2022/11/06 06:35:46;;;;;;;8.53;4.87;;;8.30;99.90;;;;;;5070812;28;20202;-82
2022/11/06 06:38:13;;;;;;;9.93;4.93;;;8.20;99.90;;;;;;5072472;28;20266;-82
2022/11/06 06:40:40;;;;;;;10.97;5.13;;;8.40;99.90;;;;;;5059007;28;20222;-83
2022/11/06 06:43:08;;;;;;;10.27;5.23;;;8.20;99.90;;;;;;5056860;28;20582;-82
2022/11/06 06:45:35;;;;;;;8.07;4.53;;;8.20;99.90;;;;;;5065125;28;20211;-83
2022/11/06 06:48:03;;;;;;;11.63;5.40;;;8.20;99.90;;;;;;5064566;28;20199;-82
2022/11/06 06:50:29;;;;;;;11.87;5.47;;;8.00;99.90;;;;;;5067165;28;20260;-82
2022/11/06 06:52:56;;;;;;;10.30;4.83;;;8.00;99.90;;;;;;5063518;28;20768;-83
2022/11/06 06:55:23;;;;;;;7.23;4.63;;;8.00;99.90;;;;;;5065868;28;20202;-83
2022/11/06 06:57:56;;;;;;;8.87;5.20;;;8.00;99.90;;;;;;5066479;28;20266;-83
2022/11/06 07:00:24;;;;;;;10.03;5.07;;;8.00;99.90;;;;;;5059146;28;20229;-80
2022/11/06 07:02:51;;;;;;;8.53;5.43;;;8.10;99.90;;;;;;5065224;28;20198;-82
2022/11/06 07:05:18;;;;;;;9.83;5.50;;;8.10;99.90;;;;;;5061569;28;20209;-81
2022/11/06 07:07:45;;;;;;;8.20;5.43;;;8.10;99.90;;;;;;5062278;28;20218;-82
2022/11/06 07:10:11;;;;;;;10.57;5.70;;;8.00;99.90;;;;;;5070131;28;20214;-82
2022/11/06 07:12:38;;;;;;;12.67;5.57;;;8.00;99.90;;;;;;5058441;28;20231;-81
2022/11/06 07:15:06;;;;;;;9.10;5.07;;;8.10;99.90;;;;;;5057463;28;20221;-81
2022/11/06 07:17:35;;;;;;;13.67;5.90;;;8.10;99.90;;;;;;5059443;28;20290;-81
2022/11/06 07:20:02;;;;;;;10.60;5.60;;;8.10;99.90;;;;;;5055093;28;20227;-81
2022/11/06 07:22:29;;;;;;;9.90;5.40;;;8.10;99.90;;;;;;5068925;28;20642;-81
2022/11/06 07:24:56;;;;;;;10.17;5.97;;;8.10;99.90;;;;;;5066089;28;20654;-83
2022/11/06 07:27:29;;;;;;;11.53;5.60;;;8.20;99.90;;;;;;5068374;28;20639;-82
2022/11/06 07:29:55;;;;;;;12.03;6.33;;;8.20;99.90;;;;;;5069828;28;20233;-83
2022/11/06 07:32:22;;;;;;;15.30;6.60;;;8.20;99.90;;;;;;5073004;28;20223;-83
2022/11/06 07:34:50;;;;;;;13.70;6.00;;;8.20;99.90;;;;;;5066967;28;20202;-81
2022/11/06 07:37:17;;;;;;;9.77;6.07;;;8.20;99.90;;;;;;5061392;28;20675;-82
2022/11/06 07:39:44;;;;;;;10.03;5.87;;;8.20;99.90;;;;;;5066289;28;20737;-81
2022/11/06 07:42:11;;;;;;;15.27;8.20;;;8.30;99.90;;;;;;5057413;28;20206;-82
2022/11/06 07:44:38;;;;;;;16.07;8.00;;;8.20;99.90;;;;;;5060008;28;20217;-83
2022/11/06 07:47:05;;;;;;;11.83;5.97;;;8.20;99.90;;;;;;5058858;28;20207;-82
2022/11/06 07:49:31;;;;;;;10.03;6.50;;;8.20;99.90;;;;;;5068842;28;20286;-81
2022/11/06 07:52:00;;;;;;;10.17;5.37;;;8.20;99.90;;;;;;5065379;28;20702;-82
2022/11/06 07:54:26;;;;;;;7.70;5.40;;;8.30;99.90;;;;;;5077209;28;20279;-82
2022/11/06 07:56:53;;;;;;;9.67;5.17;;;8.30;99.90;;;;;;5078621;28;20639;-81
2022/11/06 07:59:20;;;;;;;10.20;5.60;;;8.30;99.90;;;;;;5069105;28;20209;-81
2022/11/06 08:01:47;;;;;;;12.40;5.47;;;8.30;99.90;;;;;;5062652;28;20210;-83
2022/11/06 08:04:13;;;;;;;8.50;5.40;;;8.30;99.90;;;;;;5069037;28;20210;-83
2022/11/06 08:06:40;;;;;;;9.40;5.00;;;8.30;99.90;;;;;;5069934;28;20285;-82
2022/11/06 08:09:09;;;;;;;7.60;4.80;;;8.50;99.90;;;;;;5067865;28;20198;-81
2022/11/06 08:11:36;;;;;;;9.00;5.40;;;8.70;99.90;;;;;;5064777;28;20218;-81
2022/11/06 08:14:02;;;;;;;8.70;6.37;;;9.00;99.90;;;;;;5061380;28;20583;-81
2022/11/06 08:16:29;;;;;;;12.40;6.33;;;9.40;25.90;;;;;;5062726;28;20654;-81
2022/11/06 08:18:56;;;;;;;8.47;5.00;;;9.50;1.00;;;;;;5061024;28;20685;-80
2022/11/06 08:21:23;;;;;;;8.50;4.57;;;9.50;1.00;;;;;;5066024;28;20591;-80
2022/11/06 08:23:50;;;;;;;8.37;4.87;;;9.10;1.00;;;;;;5063173;28;20209;-81
2022/11/06 08:26:18;;;;;;;10.07;5.13;;;9.00;1.00;;;;;;5076197;28;20199;-82
2022/11/06 08:28:45;;;;;;;9.90;4.73;;;9.20;1.00;;;;;;5077867;28;20270;-82
2022/11/06 08:31:12;;;;;;;6.87;4.60;;;9.30;1.00;;;;;;5072294;28;20222;-81
2022/11/06 08:33:39;;;;;;;9.10;5.40;;;9.30;1.00;;;;;;5070364;28;20223;-81
2022/11/06 08:36:08;;;;;;;11.80;6.10;;;9.30;1.00;;;;;;5067531;28;20259;-81
2022/11/06 08:38:36;;;;;;;9.07;5.17;;;9.20;1.00;;;;;;5066199;28;20209;-83
2022/11/06 08:41:06;;;;;;;8.43;4.83;;;9.40;1.00;;;;;;5067569;28;20219;-82
2022/11/06 08:43:35;;;;;;;8.33;5.23;;;9.30;1.00;;;;;;5073087;28;20206;-81
2022/11/06 08:46:02;;;;;;;11.87;6.00;;;9.40;1.00;;;;;;5071053;28;20202;-80
2022/11/06 08:48:29;;;;;;;9.40;5.17;;;9.70;1.00;;;;;;5074769;28;20620;-81
2022/11/06 08:50:56;;;;;;;9.50;5.40;;;10.30;1.00;;;;;;5063530;28;20284;-82
2022/11/06 08:53:23;;;;;;;8.97;5.50;;;10.20;1.00;;;;;;5065386;28;20583;-81
2022/11/06 08:55:50;;;;;;;8.67;4.90;;;10.40;99.90;;;;;;5061766;28;20285;-81
2022/11/06 08:58:17;;;;;;;10.30;4.60;;;10.50;1.00;;;;;;5068353;28;20741;-82
2022/11/06 09:00:45;;;;;;;8.93;4.60;;;10.60;99.90;;;;;;5068071;28;20353;-81
2022/11/06 09:03:13;;;;;;;8.03;4.73;;;10.50;99.90;;;;;;5065333;28;20207;-80
2022/11/06 09:05:41;;;;;;;11.63;6.43;;;10.50;36.20;;;;;;5066904;28;20225;-83
2022/11/06 09:08:08;;;;;;;10.97;5.43;;;10.60;1.00;;;;;;5063843;28;20257;-80
2022/11/06 09:10:36;;;;;;;9.00;4.77;;;10.60;99.90;;;;;;5068946;28;20801;-81
2022/11/06 09:13:03;;;;;;;9.37;4.83;;;10.60;1.00;;;;;;5065240;28;20219;-82
2022/11/06 09:15:30;;;;;;;7.40;4.40;;;10.50;1.00;;;;;;5069069;28;20214;-82
2022/11/06 09:17:59;;;;;;;8.60;5.03;;;10.60;1.00;;;;;;5069488;28;20232;-82
2022/11/06 09:20:26;;;;;;;6.23;4.03;;;10.60;1.00;;;;;;5063196;28;20600;-81
2022/11/06 09:22:54;;;;;;;7.73;4.30;;;10.60;99.90;;;;;;5066663;28;20205;-81
2022/11/06 09:25:20;;;;;;;7.13;4.80;;;10.50;1.00;;;;;;5066298;28;20203;-81
2022/11/06 09:27:49;;;;;;;10.03;4.40;;;10.70;99.90;;;;;;5063167;28;20204;-81
2022/11/06 09:30:17;;;;;;;7.07;4.40;;;10.90;99.90;;;;;;5065354;28;20222;-82
2022/11/06 09:32:48;;;;;;;8.50;3.93;;;11.20;1.00;;;;;;5064345;28;20219;-82
2022/11/06 09:35:17;;;;;;;6.60;4.03;;;11.40;1.00;;;;;;5060607;28;20216;-81
2022/11/06 09:37:44;;;;;;;8.83;4.63;;;11.30;99.90;;;;;;5067660;28;20234;-80
2022/11/06 09:40:19;;;;;;;6.07;4.27;;;11.30;99.90;;;;;;5067465;28;20219;-82
2022/11/06 09:42:58;;;;;;;8.07;3.70;;;11.30;1.00;;;;;;5065270;28;20205;-80
2022/11/06 09:45:29;;;;;;;7.73;4.80;;;11.20;1.00;;;;;;5065084;28;20207;-80
2022/11/06 09:48:04;;;;;;;6.63;4.07;;;11.30;1.00;;;;;;5067804;28;20211;-80
2022/11/06 09:50:36;;;;;;;6.80;4.00;;;11.40;1.00;;;;;;5064549;28;20264;-80
2022/11/06 09:53:11;;;;;;;6.80;4.17;;;11.70;99.90;;;;;;5060103;28;20765;-80
2022/11/06 09:55:41;;;;;;;7.27;4.10;;;11.80;31.30;;;;;;5058680;28;20206;-80
2022/11/06 09:58:14;;;;;;;6.40;3.03;;;11.70;1.00;;;;;;5061168;28;20206;-79
2022/11/06 10:00:41;;;;;;;5.40;3.67;;;11.90;1.00;;;;;;5059157;28;20223;-79
2022/11/06 10:03:16;;;;;;;8.73;4.20;;;12.20;99.90;;;;;;5061688;28;20206;-79
2022/11/06 10:05:46;;;;;;;5.63;3.53;;;12.20;1.00;;;;;;5058879;28;20202;-80
2022/11/06 10:08:17;;;;;;;5.70;3.60;;;12.70;99.90;;;;;;5061377;28;20654;-80
2022/11/06 10:11:01;;;;;;;7.50;3.60;;;12.70;1.00;;;;;;5059497;28;20227;-80
2022/11/06 10:13:51;;;;;;;5.70;3.80;;;13.00;1.00;;;;;;5058079;28;20218;-80
2022/11/06 10:16:29;;;;;;;4.53;3.50;;;13.20;1.00;;;;;;5057913;28;20206;-80
2022/11/06 10:19:09;;;;;;;6.63;3.80;;;12.80;1.00;;;;;;5055893;28;20297;-80
2022/11/06 10:21:47;;;;;;;6.67;3.73;;;13.10;1.00;;;;;;5061919;28;20202;-81
2022/11/06 10:24:21;;;;;;;6.00;3.60;;;12.60;1.00;;;;;;5062659;28;20202;-82
2022/11/06 10:26:53;;;;;;;5.33;3.30;;;12.60;1.00;;;;;;5086174;28;20204;-82
2022/11/06 10:29:38;;;;;;;7.73;3.20;;;13.20;1.00;;;;;;5082473;28;20281;-81
2022/11/06 10:32:26;;;;;;;8.87;3.60;;;13.30;1.00;;;;;;5065942;28;20194;-82
2022/11/06 10:34:59;;;;;;;8.13;3.90;;;13.30;99.90;;;;;;5061693;28;20202;-81
2022/11/06 10:37:31;;;;;;;6.27;3.10;;;13.30;84.40;;;;;;5060829;28;20217;-82
2022/11/06 10:39:58;;;;;;;6.20;3.30;;;12.90;99.90;;;;;;5067626;28;20218;-82
2022/11/06 10:42:30;;;;;;;6.37;2.63;;;13.30;99.90;;;;;;5066710;28;20206;-81
2022/11/06 10:44:59;;;;;;;5.80;2.80;;;13.40;99.90;;;;;;5061245;28;20221;-82
2022/11/06 10:47:31;;;;;;;6.37;3.27;;;13.50;99.90;;;;;;5061637;28;20207;-82
2022/11/06 10:50:01;;;;;;;5.63;3.27;;;13.30;1.00;;;;;;5071706;28;20222;-82
2022/11/06 10:52:41;;;;;;;4.87;3.37;;;13.70;1.00;;;;;;5066588;28;20213;-82
2022/11/06 10:55:43;;;;;;;7.57;3.17;;;13.60;1.00;;;;;;5058015;28;20217;-82
2022/11/06 10:58:13;;;;;;;6.77;2.87;;;13.40;1.00;;;;;;5062418;28;20206;-81
2022/11/06 11:00:40;;;;;;;3.83;2.77;;;13.60;1.00;;;;;;5065518;28;20236;-81
2022/11/06 11:03:18;;;;;;;3.80;2.60;;;13.50;1.00;;;;;;5062789;28;20195;-82
2022/11/06 11:05:45;;;;;;;5.37;2.87;;;13.80;1.00;;;;;;5063145;28;20194;-82
2022/11/06 11:08:39;;;;;;;5.97;2.90;;;13.70;1.00;;;;;;5062144;28;20205;-82
2022/11/06 11:11:15;;;;;;;2.70;2.40;;;13.80;1.00;;;;;;5064913;28;20226;-82
2022/11/06 11:13:44;;;;;;;3.47;2.40;;;14.00;1.00;;;;;;5060732;28;20228;-83
2022/11/06 11:16:15;;;;;;;7.87;2.80;;;14.10;1.00;;;;;;5059985;28;20289;-83
2022/11/06 11:18:42;;;;;;;7.87;3.10;;;14.70;1.00;;;;;;5057176;28;20203;-83
2022/11/06 11:21:19;;;;;;;6.63;2.83;;;15.00;99.90;;;;;;5064081;28;20222;-83
2022/11/06 11:24:05;;;;;;;3.57;2.20;;;14.50;1.00;;;;;;5072175;28;20204;-83
2022/11/06 11:26:35;;;;;;;4.70;2.70;;;14.70;99.90;;;;;;5075230;28;20275;-82
2022/11/06 11:29:13;;;;;;;5.90;2.40;;;14.70;99.90;;;;;;5073568;28;20208;-82
2022/11/06 11:31:40;;;;;;;3.92;2.70;;;14.40;99.90;;;;;;5077337;28;20198;-82
2022/11/06 11:34:16;;;;;;;4.32;2.60;;;14.90;99.90;;;;;;5079081;28;20283;-83
2022/11/06 11:36:58;;;;;;;2.77;1.97;;;14.30;99.90;;;;;;5058379;28;20652;-84
2022/11/06 11:39:30;;;;;;;5.87;2.50;;;14.70;99.90;;;;;;5057580;28;20195;-83
2022/11/06 11:42:23;;;;;;;3.80;2.20;;;14.70;99.90;;;;;;5060321;28;20262;-85
2022/11/06 11:45:13;;;;;;;3.10;2.30;;;15.00;99.90;;;;;;5059695;28;20195;-83
2022/11/06 11:47:42;;;;;;;4.15;2.33;;;14.90;99.90;;;;;;5059380;28;20548;-85
2022/11/06 11:50:30;;;;;;;3.85;2.17;;;14.70;99.90;;;;;;5057181;28;20318;-85
2022/11/06 11:53:04;;;;;;;4.90;2.67;;;14.40;99.90;;;;;;5059996;28;20194;-84
2022/11/06 11:55:37;;;;;;;3.92;2.25;;;15.00;99.90;;;;;;5060569;28;20741;-84
2022/11/06 11:58:14;;;;;;;4.30;2.55;;;16.10;99.90;;;;;;5069444;28;20287;-83
2022/11/06 12:00:51;;;;;;;5.13;2.27;;;16.50;99.90;;;;;;5062166;28;20241;-83
2022/11/06 12:03:18;;;;;;;3.43;2.40;;;17.10;99.90;;;;;;5072256;28;20190;-83
2022/11/06 12:05:46;;;;;;;4.60;2.40;;;16.40;99.90;;;;;;5070832;28;20203;-83
2022/11/06 12:08:22;;;;;;;4.85;1.98;;;16.70;99.90;;;;;;5075467;28;20206;-83
2022/11/06 12:10:51;;;;;;;5.20;2.75;;;16.30;99.90;;;;;;5083536;28;20230;-84
2022/11/06 12:13:20;;;;;;;9.93;2.47;;;16.90;99.90;;;;;;5079891;28;20281;-83
2022/11/06 12:15:51;;;;;;;5.70;2.20;;;16.60;99.90;;;;;;5078059;28;20233;-84
2022/11/06 12:18:21;;;;;;;6.20;2.30;;;17.40;99.90;;;;;;5072443;28;20270;-83
2022/11/06 12:20:55;;;;;;;5.65;2.47;;;17.30;99.90;;;;;;5079838;28;20226;-82
2022/11/06 12:23:29;;;;;;;2.88;2.00;;;17.00;99.90;;;;;;5071732;28;20285;-82
2022/11/06 12:26:04;;;;;;;3.47;1.77;;;16.10;99.90;;;;;;5065414;28;20276;-83
2022/11/06 12:28:32;;;;;;;5.43;2.30;;;15.80;99.90;;;;;;5076571;28;20654;-84
2022/11/06 12:31:06;;;;;;;3.13;2.20;;;15.20;99.90;;;;;;5071724;28;20230;-82
2022/11/06 12:33:33;;;;;;;6.30;2.13;;;14.00;99.90;;;;;;5062132;28;20219;-83
2022/11/06 12:36:05;;;;;;;3.57;2.00;;;14.00;99.90;;;;;;5060536;28;20195;-83
2022/11/06 12:38:53;;;;;;;6.35;2.53;;;13.90;99.90;;;;;;5054337;28;20199;-83
2022/11/06 12:41:26;;;;;;;3.33;2.13;;;15.10;99.90;;;;;;5064229;28;20214;-83
2022/11/06 12:43:55;;;;;;;5.77;2.60;;;15.70;99.90;;;;;;5063974;28;20209;-82
2022/11/06 12:46:35;;;;;;;6.78;2.08;;;16.50;99.90;;;;;;5059400;28;20215;-85
2022/11/06 12:49:41;;;;;;;5.03;2.10;;;17.60;99.90;;;;;;5064900;28;20210;-82
2022/11/06 12:52:20;;;;;;;3.72;2.10;;;17.30;99.90;;;;;;5063358;28;20198;-83
2022/11/06 12:54:58;;;;;;;3.38;2.15;;;17.90;99.90;;;;;;5072790;28;20228;-83
2022/11/06 12:57:36;;;;;;;5.22;2.20;;;18.10;96.30;;;;;;5068475;28;20202;-85
2022/11/06 13:00:08;;;;;;;3.97;2.05;;;16.30;36.50;;;;;;5071642;28;20237;-83
2022/11/06 13:03:00;;;;;;;3.63;1.98;;;15.90;45.20;;;;;;5074672;28;20211;-82
2022/11/06 13:05:32;;;;;;;4.20;2.08;;;16.20;38.90;;;;;;5066926;28;20206;-82
2022/11/06 13:08:22;;;;;;;4.30;2.33;;;16.00;35.60;;;;;;5073495;28;20237;-84
2022/11/06 13:11:11;;;;;;;21.70;13.48;;;15.60;38.20;;;;;;5065224;28;20593;-82
2022/11/06 13:13:54;;;;;;;6.83;2.37;;;14.70;97.90;;;;;;5067506;28;20332;-83
2022/11/06 13:16:32;;;;;;;2.33;1.97;;;13.90;99.90;;;;;;5065238;28;20199;-83
2022/11/06 13:19:06;;;;;;;4.30;1.80;;;13.80;99.90;;;;;;5062632;28;20570;-82
2022/11/06 13:21:56;;;;;;;6.30;2.33;;;13.40;99.90;;;;;;5072487;28;20229;-82
2022/11/06 13:24:31;;;;;;;5.17;1.80;;;13.30;99.90;;;;;;5062027;28;20196;-82
2022/11/06 13:27:08;;;;;;;2.13;1.70;;;13.40;99.90;;;;;;5065360;28;20988;-82
2022/11/06 13:29:37;;;;;;;3.80;2.00;;;13.30;99.90;;;;;;5070008;28;20670;-82
2022/11/06 13:32:09;;;;;;;3.53;2.30;;;13.20;1.00;;;;;;5070200;28;20199;-82